Latest Weather Observations for Hobart Airport

IDT60901

Issued at 9:01 am EDT Wednesday 23 October 2019 (issued every 10 minutes, with the page automatically refreshed every 10 minutes)

About weather observations | Map of Hobart area stations | Latest observations for Hobart area | Other Formats
Station Details ID: 094008 Name: HOBART AIRPORT Lat: -42.83 Lon: 147.50 Height: 4.0 m
Data from the previous 72 hours. | See also: Recent months at Hobart Airport
Date/Time
EDT
Temp
°C
App
Temp
°C
Dew
Point
°C
Rel
Hum
%
Delta-T
°C
Wind Press
QNH
hPa
Press
MSL
hPa
Rain since
9am
mm
Dir  Spd
km/h
Gust
km/h
Spd
kts
Gust
kts
23/08:30am 15.7 10.9 2.8 42 5.8 NNW 17 20 9 11 1017.7 1017.7 0.0
23/08:00am 13.9 10.2 4.6 53 4.3 NW 13 19 7 10 1017.9 1017.9 0.0
23/07:30am 14.2 9.7 2.4 45 5.2 NW 15 19 8 10 1017.7 1017.7 0.0
23/07:00am 14.3 9.7 1.6 42 5.5 WNW 15 17 8 9 1017.1 1017.1 0.0
23/06:30am 14.2 9.9 0.8 40 5.7 WNW 13 19 7 10 1017.0 1017.0 0.0
23/06:00am 14.5 9.4 0.7 39 5.9 WNW 17 20 9 11 1016.8 1016.8 0.0
23/05:30am 14.8 8.7 0.5 37 6.1 NNW 22 32 12 17 1016.5 1016.5 0.0
23/05:00am 14.3 9.0 2.9 46 5.1 NNW 20 24 11 13 1016.8 1016.8 0.0
23/04:30am 13.3 9.1 5.9 61 3.5 NNW 17 24 9 13 1017.1 1017.1 0.0
23/04:00am 12.9 9.3 6.9 67 2.9 NNW 15 24 8 13 1017.1 1017.1 0.0
23/03:30am 12.4 10.1 7.5 72 2.4 NE 9 24 5 13 1017.3 1017.3 0.0
23/03:00am 11.4 9.6 8.1 80 1.6 NNW 7 11 4 6 1018.1 1018.1 0.0
23/02:30am 10.7 8.7 8.7 87 1.0 N 9 13 5 7 1018.5 1018.5 0.0
23/02:00am 9.9 8.2 7.4 84 1.2 W 6 9 3 5 1019.2 1019.2 0.0
23/01:30am 10.7 8.4 7.3 79 1.6 NW 9 11 5 6 1019.8 1019.8 0.0
23/01:00am 10.1 8.0 6.7 79 1.6 W 7 9 4 5 1020.2 1020.2 0.0
23/12:30am 10.1 7.3 7.1 81 1.4 SW 11 13 6 7 1020.3 1020.3 0.0
23/12:00am 11.4 8.9 8.3 81 1.5 NNW 11 13 6 7 1020.0 1020.0 0.0
 
Date/Time
EDT
Temp
°C
App
Temp
°C
Dew
Point
°C
Rel
Hum
%
Delta-T
°C
Wind Press
QNH
hPa
Press
MSL
hPa
Rain since
9am
mm
Dir  Spd
km/h
Gust
km/h
Spd
kts
Gust
kts
22/11:30pm 11.1 8.9 8.0 81 1.5 NNW 9 11 5 6 1020.2 1020.2 0.0
22/11:00pm 10.3 9.7 7.6 83 1.3 CALM 0 0 0 0 1020.6 1020.6 0.0
22/10:30pm 10.9 10.3 7.6 80 1.6 CALM 0 0 0 0 1020.8 1020.8 0.0
22/10:00pm 11.7 9.9 7.3 74 2.1 SW 6 7 3 4 1021.0 1021.0 0.0
22/09:30pm 11.8 10.7 6.7 71 2.4 WNW 2 7 1 4 1021.0 1021.0 0.0
22/09:00pm 12.0 10.9 6.7 70 2.5 ESE 2 7 1 4 1021.1 1021.1 0.0
22/08:30pm 12.3 9.9 6.9 69 2.6 SSW 9 13 5 7 1021.0 1021.0 0.0
22/08:00pm 13.2 9.6 6.7 64 3.1 S 15 20 8 11 1020.8 1020.8 0.0
22/07:30pm 14.1 9.4 7.6 65 3.2 S 22 28 12 15 1020.6 1020.6 0.0
22/07:00pm 14.9 9.6 6.9 58 3.9 SSE 24 32 13 17 1020.5 1020.5 0.0
22/06:30pm 15.1 8.5 7.9 62 3.6 SSE 32 41 17 22 1020.1 1020.1 0.0
22/06:00pm 15.9 12.0 9.5 66 3.3 S 20 26 11 14 1019.7 1019.7 0.0
22/05:30pm 16.5 12.3 8.4 58 4.1 S 20 24 11 13 1019.6 1019.6 0.0
22/05:00pm 18.3 13.9 7.4 49 5.5 SSE 20 28 11 15 1019.4 1019.4 0.0
22/04:30pm 18.6 13.8 7.3 47 5.7 SSE 22 28 12 15 1019.5 1019.5 0.0
22/04:00pm 18.6 14.6 6.8 46 5.9 SE 17 24 9 13 1020.0 1020.0 0.0
22/03:30pm 18.7 15.1 6.9 46 5.9 SE 15 22 8 12 1020.5 1020.5 0.0
22/03:00pm 18.8 16.1 5.7 42 6.4 ENE 9 15 5 8 1021.1 1021.1 0.0
22/02:30pm 18.1 14.4 6.3 46 5.8 ESE 15 20 8 11 1021.5 1021.5 0.0
22/02:00pm 17.3 12.8 6.0 47 5.5 ESE 19 26 10 14 1021.9 1021.9 0.0
22/01:30pm 17.6 13.8 5.9 46 5.7 ESE 15 20 8 11 1022.0 1022.0 0.0
22/01:00pm 17.4 14.3 3.6 40 6.4 NNE 9 19 5 10 1022.6 1022.6 0.0
22/12:30pm 16.5 13.9 4.0 43 5.8 N 7 15 4 8 1022.9 1022.9 0.0
22/12:00pm 16.0 12.9 3.5 43 5.7 NNE 9 17 5 9 1023.3 1023.3 0.0
22/11:30am 15.1 12.5 4.0 47 5.1 NNE 7 11 4 6 1024.0 1024.0 0.0
22/11:00am 14.0 10.9 3.8 50 4.6 NE 9 15 5 8 1024.2 1024.2 0.0
22/10:30am 13.8 10.1 4.4 53 4.3 NE 13 17 7 9 1024.7 1024.7 0.0
22/10:00am 12.5 9.1 3.8 55 3.9 WNW 11 15 6 8 1024.9 1024.9 0.0
22/09:30am 12.4 9.0 4.2 57 3.7 NW 11 15 6 8 1025.2 1025.2 0.0
22/09:00am 11.7 8.1 4.9 63 3.1 NW 13 17 7 9 1025.4 1025.4 0.0
22/08:30am 10.9 7.3 4.9 66 2.7 NW 13 17 7 9 1025.3 1025.3 0.0
22/08:00am 9.5 6.2 4.5 71 2.2 NW 11 15 6 8 1025.1 1025.1 0.0
22/07:30am 8.7 5.0 4.6 75 1.8 WNW 13 15 7 8 1024.9 1024.9 0.0
22/07:00am 7.8 3.5 5.1 83 1.2 NW 17 20 9 11 1024.6 1024.6 0.0
22/06:30am 6.4 4.6 3.5 82 1.2 NW 2 7 1 4 1024.4 1024.4 0.0
22/06:00am 6.7 3.9 3.4 79 1.4 W 7 9 4 5 1024.0 1024.0 0.0
22/05:30am 6.7 4.0 3.6 80 1.3 WNW 7 9 4 5 1023.7 1023.7 0.0
22/05:00am 6.7 3.6 3.4 79 1.4 W 9 11 5 6 1023.6 1023.6 0.0
22/04:30am 7.5 4.4 3.7 77 1.6 W 9 11 5 6 1023.4 1023.4 0.0
22/04:00am 5.8 3.0 3.4 84 1.0 N 7 9 4 5 1023.4 1023.4 0.0
22/03:30am 7.4 4.6 3.4 76 1.7 WNW 7 9 4 5 1023.3 1023.3 0.0
22/03:00am 7.1 4.5 3.3 77 1.6 NW 6 11 3 6 1023.4 1023.4 0.0
22/02:30am 7.1 4.4 3.6 78 1.5 W 7 11 4 6 1023.3 1023.3 0.0
22/02:00am 7.5 5.0 3.5 76 1.7 NW 6 7 3 4 1023.5 1023.5 0.0
22/01:30am 6.8 5.4 3.7 80 1.3 CALM 0 0 0 0 1023.6 1023.6 0.0
22/01:00am 9.3 6.8 4.0 69 2.3 NW 6 9 3 5 1023.6 1023.6 0.0
22/12:30am 9.4 7.0 4.4 71 2.2 SW 6 9 3 5 1023.6 1023.6 0.0
22/12:00am 9.8 6.9 4.6 70 2.3 WNW 9 11 5 6 1023.4 1023.4 0.0
 
Date/Time
EDT
Temp
°C
App
Temp
°C
Dew
Point
°C
Rel
Hum
%
Delta-T
°C
Wind Press
QNH
hPa
Press
MSL
hPa
Rain since
9am
mm
Dir  Spd
km/h
Gust
km/h
Spd
kts
Gust
kts
21/11:30pm 8.7 6.9 7.0 89 0.8 NW 6 7 3 4 1023.5 1023.5 0.0
21/11:00pm 8.9 7.0 7.4 90 0.7 NNW 7 11 4 6 1023.2 1023.2 0.0
21/10:30pm 9.5 7.9 8.7 95 0.4 SSW 7 11 4 6 1023.2 1023.2 0.0
21/10:00pm 11.4 9.8 8.8 84 1.3 S 7 15 4 8 1023.1 1023.1 0.0
21/09:30pm 11.7 9.4 9.1 84 1.3 SSW 11 13 6 7 1023.0 1023.0 0.0
21/09:00pm 11.5 9.5 8.7 83 1.4 SSW 9 13 5 7 1022.9 1022.9 0.0
21/08:30pm 12.4 10.1 9.0 80 1.7 SSW 11 15 6 8 1022.6 1022.6 0.0
21/08:00pm 13.0 10.7 9.0 77 2.0 S 11 15 6 8 1022.3 1022.3 0.0
21/07:30pm 13.7 10.6 8.7 72 2.5 S 15 20 8 11 1022.0 1022.0 0.0
21/07:00pm 14.9 11.6 9.7 71 2.7 SSE 17 19 9 10 1021.7 1021.7 0.0
21/06:30pm 15.6 12.5 8.9 64 3.4 SSE 15 19 8 10 1021.3 1021.3 0.0
21/06:00pm 16.2 12.1 8.5 60 3.9 SSE 20 26 11 14 1021.1 1021.1 0.0
21/05:30pm 16.4 11.9 8.5 59 4.0 S 22 28 12 15 1020.7 1020.7 0.0
21/05:00pm 16.5 11.0 7.7 56 4.4 SSE 26 32 14 17 1020.4 1020.4 0.0
21/04:30pm 17.8 13.0 7.5 51 5.2 SSE 22 30 12 16 1020.4 1020.4 0.0
21/04:00pm 17.9 13.0 6.8 48 5.5 SSE 22 30 12 16 1020.5 1020.5 0.0
21/03:30pm 19.0 14.4 5.7 41 6.5 SE 19 24 10 13 1020.5 1020.5 0.0
21/03:00pm 18.7 14.0 5.0 40 6.6 SE 19 24 10 13 1020.5 1020.5 0.0
21/02:30pm 19.7 14.9 5.4 39 7.0 SSE 20 26 11 14 1020.7 1020.7 0.0
21/02:00pm 21.0 16.4 3.9 32 8.2 SE 17 26 9 14 1020.9 1020.9 0.0
21/01:30pm 19.4 14.3 3.1 34 7.6 SE 19 24 10 13 1020.9 1020.9 0.0
21/01:00pm 19.7 14.7 3.6 34 7.6 SSE 19 24 10 13 1021.0 1021.0 0.0
21/12:30pm 18.4 14.1 3.4 37 7.0 SSE 15 19 8 10 1021.4 1021.4 0.0
21/12:00pm 18.0 14.2 3.9 39 6.6 SE 13 20 7 11 1021.6 1021.6 0.0
21/11:30am 17.2 12.6 3.6 40 6.3 SSE 17 22 9 12 1022.0 1022.0 0.0
21/11:00am 17.0 12.9 4.5 43 5.9 SE 15 20 8 11 1022.0 1022.0 0.0
21/10:30am 16.8 13.6 3.0 39 6.3 WNW 9 19 5 10 1022.2 1022.2 0.0
21/10:00am 16.4 11.7 3.3 41 6.0 NW 17 22 9 12 1022.3 1022.3 0.0
21/09:30am 14.9 9.6 3.1 45 5.3 NW 20 28 11 15 1022.3 1022.3 0.0
21/09:00am 14.6 9.8 4.4 50 4.7 NW 19 28 10 15 1022.2 1022.2 0.0
21/08:30am 13.5 7.9 3.7 51 4.4 NW 22 32 12 17 1022.0 1022.0 0.0
21/08:00am 12.8 7.6 3.6 53 4.1 NW 20 30 11 16 1021.8 1021.8 0.0
21/07:30am 12.1 7.0 4.1 58 3.6 NW 20 28 11 15 1021.5 1021.5 0.0
21/07:00am 11.6 6.1 4.0 59 3.4 NW 22 30 12 16 1021.2 1021.2 0.0
21/06:30am 11.1 6.0 3.9 61 3.2 NW 20 28 11 15 1020.9 1020.9 0.0
21/06:00am 11.3 5.7 3.3 58 3.5 NW 22 30 12 16 1020.6 1020.6 0.0
21/05:30am 11.4 7.4 2.9 56 3.7 NNW 13 19 7 10 1020.3 1020.3 0.0
21/05:00am 11.6 7.6 2.6 54 3.9 NW 13 17 7 9 1020.1 1020.1 0.0
21/04:30am 11.4 6.7 3.4 58 3.5 NW 17 22 9 12 1020.0 1020.0 0.0
21/04:00am 12.2 7.4 2.8 52 4.1 NNW 17 28 9 15 1019.8 1019.8 0.0
21/03:30am 11.7 6.2 4.1 59 3.4 NW 22 32 12 17 1019.8 1019.8 0.0
21/03:00am 12.3 4.7 3.0 53 4.1 NW 32 43 17 23 1019.7 1019.7 0.0
21/02:30am 12.3 5.1 3.0 53 4.1 NW 30 41 16 22 1019.7 1019.7 0.0
21/02:00am 12.1 5.3 3.3 55 3.9 NW 28 37 15 20 1019.7 1019.7 0.0
21/01:30am 12.1 5.5 4.1 58 3.6 NW 28 37 15 20 1019.8 1019.8 0.0
21/01:00am 12.2 5.6 4.2 58 3.6 NW 28 39 15 21 1019.8 1019.8 0.0
21/12:30am 12.0 7.2 4.5 60 3.4 NW 19 30 10 16 1020.0 1020.0 0.0
21/12:00am 12.2 6.4 4.5 59 3.5 NW 24 33 13 18 1020.0 1020.0 0.0
 
Date/Time
EDT
Temp
°C
App
Temp
°C
Dew
Point
°C
Rel
Hum
%
Delta-T
°C
Wind Press
QNH
hPa
Press
MSL
hPa
Rain since
9am
mm
Dir  Spd
km/h
Gust
km/h
Spd
kts
Gust
kts
20/11:30pm 12.0 7.6 5.0 62 3.2 NW 17 28 9 15 1019.7 1019.7 0.0
20/11:00pm 12.5 8.4 4.6 58 3.6 WNW 15 22 8 12 1019.7 1019.7 0.0
20/10:30pm 12.7 8.6 4.3 56 3.8 WNW 15 26 8 14 1019.4 1019.4 0.0
20/10:00pm 13.0 8.1 4.2 55 4.0 NW 19 28 10 15 1019.2 1019.2 0.0
20/09:30pm 13.4 8.9 4.2 53 4.2 WNW 17 26 9 14 1018.8 1018.8 0.0
20/09:00pm 13.4 7.3 4.7 55 4.0 W 26 33 14 18 1018.3 1018.3 0.0
20/08:30pm 13.7 7.3 5.1 56 4.0 WNW 28 37 15 20 1017.9 1017.9 0.0
20/08:00pm 14.0 8.4 5.5 56 4.0 NW 24 35 13 19 1017.5 1017.5 0.0
20/07:30pm 14.5 9.7 5.4 54 4.3 NNW 20 32 11 17 1017.0 1017.0 0.0
20/07:00pm 14.8 9.4 6.3 56 4.1 NNW 24 37 13 20 1016.4 1016.4 0.0
20/06:30pm 15.4 10.0 6.3 54 4.4 NW 24 33 13 18 1016.1 1016.1 0.0
20/06:00pm 16.0 10.6 6.3 52 4.7 NW 24 35 13 19 1015.5 1015.5 0.0
20/05:30pm 16.4 10.5 5.9 50 5.1 NW 26 35 14 19 1015.2 1015.2 0.0
20/05:00pm 16.8 11.5 6.9 52 4.9 NW 24 39 13 21 1014.8 1014.8 0.0
20/04:30pm 18.4 13.2 5.5 42 6.3 NW 22 35 12 19 1014.3 1014.3 0.0
20/04:00pm 18.1 12.5 5.3 43 6.2 W 24 37 13 20 1013.6 1013.6 0.0
20/03:30pm 18.7 12.7 5.4 41 6.5 WSW 26 37 14 20 1013.2 1013.2 0.0
20/03:00pm 18.7 12.3 5.1 40 6.6 W 28 41 15 22 1013.0 1013.0 0.0
20/02:34pm 18.8 11.3 4.7 39 6.8 W 33 52 18 28 1012.7 1012.7 0.0
20/02:30pm 18.3 10.4 4.5 40 6.6 W 35 52 19 28 1012.7 1012.7 0.0
20/02:00pm 18.1 10.2 4.5 40 6.5 W 35 48 19 26 1012.3 1012.3 0.0
20/01:44pm 18.6 10.0 4.4 39 6.8 W 39 57 21 31 1012.2 1012.2 0.0
20/01:30pm 18.2 10.1 5.2 42 6.3 W 37 52 20 28 1012.2 1012.2 0.0
20/01:00pm 18.5 10.4 5.4 42 6.4 W 37 50 20 27 1012.2 1012.2 0.0
20/12:30pm 17.1 8.9 5.0 44 5.8 W 37 48 20 26 1012.1 1012.1 0.0
20/12:00pm 16.2 8.7 4.5 45 5.5 W 33 44 18 24 1011.9 1011.9 0.0
20/11:30am 16.3 8.8 4.4 45 5.6 W 33 43 18 23 1011.8 1011.8 0.0
20/11:00am 15.6 9.5 4.8 48 5.1 WNW 26 35 14 19 1011.9 1011.9 0.0
20/10:30am 14.8 9.4 4.5 50 4.8 W 22 30 12 16 1011.9 1011.9 0.0
20/10:00am 14.6 7.9 3.6 47 5.0 WNW 28 39 15 21 1011.5 1011.5 0.0
20/09:30am 14.2 7.5 3.6 49 4.8 WNW 28 35 15 19 1010.7 1010.7 0.0

Latest Capital City Observations: Canberra | Sydney | Melbourne | Brisbane | Adelaide | Perth | Hobart | Darwin

Other formats

Comma delimited format used in spreadsheet applications
http://www.bom.gov.au/fwo/IDT60901/IDT60901.94975.axf

JavaScript Object Notation format (JSON) in row-major order
http://www.bom.gov.au/fwo/IDT60901/IDT60901.94975.json

Data quality

Most of these data are generated automatically and are frequently updated. Quality checks on data are not normally performed. It is possible for incorrect values to appear. Refer to information at About Latest Weather Observations and please check the disclaimer before using these data.